sensor_id;sensor_type;location;lat;lon;timestamp;pressure;altitude;pressure_sealevel;temperature;humidity
51849;BME280;38952;51.090;-1.832;2022-12-11T00:01:58;99630.56;;;-3.04;83.67
51849;BME280;38952;51.090;-1.832;2022-12-11T00:04:24;99640.47;;;-2.97;82.48
51849;BME280;38952;51.090;-1.832;2022-12-11T00:06:54;99658.25;;;-2.83;83.12
51849;BME280;38952;51.090;-1.832;2022-12-11T00:09:28;99648.78;;;-2.79;82.59
51849;BME280;38952;51.090;-1.832;2022-12-11T00:11:53;99638.09;;;-2.79;81.88
51849;BME280;38952;51.090;-1.832;2022-12-11T00:14:18;99643.53;;;-2.66;81.85
51849;BME280;38952;51.090;-1.832;2022-12-11T00:16:49;99639.00;;;-2.65;82.18
51849;BME280;38952;51.090;-1.832;2022-12-11T00:19:14;99609.50;;;-2.72;81.64
51849;BME280;38952;51.090;-1.832;2022-12-11T00:21:47;99624.16;;;-2.68;82.04
51849;BME280;38952;51.090;-1.832;2022-12-11T00:24:13;99614.47;;;-2.69;81.78
51849;BME280;38952;51.090;-1.832;2022-12-11T00:26:38;99592.59;;;-2.79;81.81
51849;BME280;38952;51.090;-1.832;2022-12-11T00:29:06;99611.63;;;-2.60;81.43
51849;BME280;38952;51.090;-1.832;2022-12-11T00:31:33;99626.72;;;-2.46;81.82
51849;BME280;38952;51.090;-1.832;2022-12-11T00:34:00;99637.03;;;-2.43;81.74
51849;BME280;38952;51.090;-1.832;2022-12-11T00:36:26;99629.56;;;-2.54;81.43
51849;BME280;38952;51.090;-1.832;2022-12-11T00:38:52;99623.59;;;-2.56;81.31
51849;BME280;38952;51.090;-1.832;2022-12-11T00:41:18;99626.25;;;-2.56;81.13
51849;BME280;38952;51.090;-1.832;2022-12-11T00:43:45;99614.69;;;-2.64;82.00
51849;BME280;38952;51.090;-1.832;2022-12-11T00:46:10;99597.19;;;-2.73;81.74
51849;BME280;38952;51.090;-1.832;2022-12-11T00:48:36;99594.06;;;-2.76;81.47
51849;BME280;38952;51.090;-1.832;2022-12-11T00:51:02;99599.41;;;-2.76;81.92
51849;BME280;38952;51.090;-1.832;2022-12-11T00:53:28;99597.09;;;-2.86;81.44
51849;BME280;38952;51.090;-1.832;2022-12-11T00:55:53;99607.63;;;-2.85;82.62
51849;BME280;38952;51.090;-1.832;2022-12-11T00:58:19;99584.31;;;-2.91;81.85
51849;BME280;38952;51.090;-1.832;2022-12-11T01:00:44;99618.19;;;-2.70;82.83
51849;BME280;38952;51.090;-1.832;2022-12-11T01:03:13;99627.47;;;-2.66;82.32
51849;BME280;38952;51.090;-1.832;2022-12-11T01:05:39;99616.13;;;-2.68;82.35
51849;BME280;38952;51.090;-1.832;2022-12-11T01:08:04;99608.50;;;-2.71;82.30
51849;BME280;38952;51.090;-1.832;2022-12-11T01:10:33;99615.50;;;-2.70;81.99
51849;BME280;38952;51.090;-1.832;2022-12-11T01:13:04;99611.78;;;-2.75;82.33
51849;BME280;38952;51.090;-1.832;2022-12-11T01:15:32;99629.50;;;-2.68;81.95
51849;BME280;38952;51.090;-1.832;2022-12-11T01:17:58;99624.94;;;-2.74;81.62
51849;BME280;38952;51.090;-1.832;2022-12-11T01:20:27;99609.03;;;-2.89;81.78
51849;BME280;38952;51.090;-1.832;2022-12-11T01:22:53;99600.16;;;-2.96;81.32
51849;BME280;38952;51.090;-1.832;2022-12-11T01:25:19;99608.78;;;-3.01;81.91
51849;BME280;38952;51.090;-1.832;2022-12-11T01:27:45;99621.56;;;-2.96;81.81
51849;BME280;38952;51.090;-1.832;2022-12-11T01:30:12;99612.84;;;-3.05;81.63
51849;BME280;38952;51.090;-1.832;2022-12-11T01:32:38;99612.41;;;-3.08;81.30
51849;BME280;38952;51.090;-1.832;2022-12-11T01:35:06;99626.44;;;-3.00;81.38
51849;BME280;38952;51.090;-1.832;2022-12-11T01:37:34;99607.03;;;-3.15;82.26
51849;BME280;38952;51.090;-1.832;2022-12-11T01:40:00;99618.03;;;-2.96;81.60
51849;BME280;38952;51.090;-1.832;2022-12-11T01:42:33;99590.16;;;-3.16;81.42
51849;BME280;38952;51.090;-1.832;2022-12-11T01:47:49;99604.59;;;-3.10;81.82
51849;BME280;38952;51.090;-1.832;2022-12-11T01:50:17;99581.91;;;-3.21;81.55
51849;BME280;38952;51.090;-1.832;2022-12-11T01:52:45;99591.81;;;-3.14;81.86
51849;BME280;38952;51.090;-1.832;2022-12-11T01:55:14;99590.81;;;-3.07;81.49
51849;BME280;38952;51.090;-1.832;2022-12-11T01:57:44;99607.94;;;-3.01;81.75
51849;BME280;38952;51.090;-1.832;2022-12-11T02:00:12;99593.88;;;-3.10;81.41
51849;BME280;38952;51.090;-1.832;2022-12-11T02:02:37;99590.19;;;-3.09;81.28
51849;BME280;38952;51.090;-1.832;2022-12-11T02:05:04;99579.44;;;-3.16;81.66
51849;BME280;38952;51.090;-1.832;2022-12-11T02:07:36;99597.22;;;-3.08;81.36
51849;BME280;38952;51.090;-1.832;2022-12-11T02:10:03;99593.47;;;-3.07;81.57
51849;BME280;38952;51.090;-1.832;2022-12-11T02:18:13;99584.91;;;-2.95;81.07
51849;BME280;38952;51.090;-1.832;2022-12-11T02:20:56;99585.72;;;-3.02;81.35
51849;BME280;38952;51.090;-1.832;2022-12-11T02:23:37;99589.19;;;-3.08;80.92
51849;BME280;38952;51.090;-1.832;2022-12-11T02:28:46;99582.31;;;-3.17;81.34
51849;BME280;38952;51.090;-1.832;2022-12-11T02:31:21;99585.63;;;-3.15;81.37
51849;BME280;38952;51.090;-1.832;2022-12-11T02:33:57;99581.91;;;-3.14;82.03
51849;BME280;38952;51.090;-1.832;2022-12-11T02:36:39;99579.41;;;-3.22;81.32
51849;BME280;38952;51.090;-1.832;2022-12-11T02:39:08;99569.28;;;-3.34;81.75
51849;BME280;38952;51.090;-1.832;2022-12-11T02:41:48;99564.06;;;-3.42;81.30
51849;BME280;38952;51.090;-1.832;2022-12-11T02:44:18;99577.91;;;-3.31;82.33
51849;BME280;38952;51.090;-1.832;2022-12-11T02:46:45;99554.56;;;-3.51;82.28
51849;BME280;38952;51.090;-1.832;2022-12-11T02:49:12;99595.38;;;-3.36;82.33
51849;BME280;38952;51.090;-1.832;2022-12-11T02:51:40;99587.97;;;-3.34;81.95
51849;BME280;38952;51.090;-1.832;2022-12-11T02:54:17;99570.69;;;-3.38;82.62
51849;BME280;38952;51.090;-1.832;2022-12-11T02:56:55;99553.56;;;-3.43;81.93
51849;BME280;38952;51.090;-1.832;2022-12-11T02:59:30;99561.19;;;-3.40;82.27
51849;BME280;38952;51.090;-1.832;2022-12-11T03:02:01;99535.22;;;-3.53;82.62
51849;BME280;38952;51.090;-1.832;2022-12-11T03:04:32;99527.97;;;-3.59;81.94
51849;BME280;38952;51.090;-1.832;2022-12-11T03:07:17;99547.59;;;-3.45;82.21
51849;BME280;38952;51.090;-1.832;2022-12-11T03:09:50;99527.78;;;-3.58;82.51
51849;BME280;38952;51.090;-1.832;2022-12-11T03:12:29;99512.03;;;-3.74;82.60
51849;BME280;38952;51.090;-1.832;2022-12-11T03:15:14;99511.22;;;-3.75;82.07
51849;BME280;38952;51.090;-1.832;2022-12-11T03:17:53;99517.06;;;-3.64;81.58
51849;BME280;38952;51.090;-1.832;2022-12-11T03:20:43;99537.72;;;-3.45;82.41
51849;BME280;38952;51.090;-1.832;2022-12-11T03:23:24;99554.84;;;-3.39;82.07
51849;BME280;38952;51.090;-1.832;2022-12-11T03:26:00;99532.56;;;-3.53;82.43
51849;BME280;38952;51.090;-1.832;2022-12-11T03:31:11;99526.13;;;-3.59;81.85
51849;BME280;38952;51.090;-1.832;2022-12-11T03:33:42;99538.31;;;-3.49;82.11
51849;BME280;38952;51.090;-1.832;2022-12-11T03:36:14;99531.09;;;-3.56;81.99
51849;BME280;38952;51.090;-1.832;2022-12-11T03:38:51;99544.69;;;-3.51;82.41
51849;BME280;38952;51.090;-1.832;2022-12-11T03:41:25;99519.06;;;-3.66;81.92
51849;BME280;38952;51.090;-1.832;2022-12-11T03:44:00;99519.94;;;-3.59;82.20
51849;BME280;38952;51.090;-1.832;2022-12-11T03:46:31;99531.50;;;-3.59;82.59
51849;BME280;38952;51.090;-1.832;2022-12-11T03:49:02;99517.84;;;-3.71;82.01
51849;BME280;38952;51.090;-1.832;2022-12-11T03:51:31;99527.28;;;-3.68;82.06
51849;BME280;38952;51.090;-1.832;2022-12-11T03:53:58;99515.56;;;-3.74;82.52
51849;BME280;38952;51.090;-1.832;2022-12-11T03:56:26;99504.22;;;-3.76;82.53
51849;BME280;38952;51.090;-1.832;2022-12-11T03:58:53;99502.00;;;-3.72;82.16
51849;BME280;38952;51.090;-1.832;2022-12-11T04:01:18;99522.44;;;-3.58;82.02
51849;BME280;38952;51.090;-1.832;2022-12-11T04:03:44;99505.09;;;-3.69;82.30
51849;BME280;38952;51.090;-1.832;2022-12-11T04:06:12;99510.03;;;-3.72;81.86
51849;BME280;38952;51.090;-1.832;2022-12-11T04:08:39;99530.16;;;-3.70;81.85
51849;BME280;38952;51.090;-1.832;2022-12-11T04:11:05;99528.66;;;-3.79;82.44
51849;BME280;38952;51.090;-1.832;2022-12-11T04:13:49;99521.38;;;-3.92;82.39
51849;BME280;38952;51.090;-1.832;2022-12-11T04:16:34;99518.50;;;-3.90;82.59
51849;BME280;38952;51.090;-1.832;2022-12-11T04:19:00;99522.44;;;-3.86;82.72
51849;BME280;38952;51.090;-1.832;2022-12-11T04:21:44;99497.84;;;-4.03;82.43
51849;BME280;38952;51.090;-1.832;2022-12-11T04:24:28;99511.13;;;-3.88;82.81
51849;BME280;38952;51.090;-1.832;2022-12-11T04:26:53;99516.03;;;-3.92;82.75
51849;BME280;38952;51.090;-1.832;2022-12-11T04:29:19;99518.50;;;-3.90;82.46
51849;BME280;38952;51.090;-1.832;2022-12-11T04:31:44;99512.34;;;-3.91;82.83
51849;BME280;38952;51.090;-1.832;2022-12-11T04:34:10;99478.47;;;-4.12;83.00
51849;BME280;38952;51.090;-1.832;2022-12-11T04:36:36;99484.34;;;-4.01;83.39
51849;BME280;38952;51.090;-1.832;2022-12-11T04:39:03;99494.84;;;-3.93;83.34
51849;BME280;38952;51.090;-1.832;2022-12-11T04:41:29;99497.59;;;-3.87;83.06
51849;BME280;38952;51.090;-1.832;2022-12-11T04:43:57;99489.78;;;-3.88;82.80
51849;BME280;38952;51.090;-1.832;2022-12-11T04:46:23;99472.88;;;-3.95;82.51
51849;BME280;38952;51.090;-1.832;2022-12-11T04:48:50;99491.50;;;-3.74;82.75
51849;BME280;38952;51.090;-1.832;2022-12-11T04:51:16;99470.88;;;-3.87;82.25
51849;BME280;38952;51.090;-1.832;2022-12-11T04:53:45;99495.63;;;-3.71;82.61
51849;BME280;38952;51.090;-1.832;2022-12-11T04:56:13;99505.19;;;-3.55;82.55
51849;BME280;38952;51.090;-1.832;2022-12-11T04:58:40;99480.66;;;-3.65;82.63
51849;BME280;38952;51.090;-1.832;2022-12-11T05:01:09;99486.25;;;-3.60;82.06
51849;BME280;38952;51.090;-1.832;2022-12-11T05:03:35;99467.28;;;-3.72;82.37
51849;BME280;38952;51.090;-1.832;2022-12-11T05:06:04;99457.75;;;-3.81;82.37
51849;BME280;38952;51.090;-1.832;2022-12-11T05:08:29;99422.50;;;-3.98;81.89
51849;BME280;38952;51.090;-1.832;2022-12-11T05:11:07;99455.44;;;-3.91;82.08
51849;BME280;38952;51.090;-1.832;2022-12-11T05:13:36;99466.75;;;-3.89;82.50
51849;BME280;38952;51.090;-1.832;2022-12-11T05:16:06;99476.31;;;-4.01;82.28
51849;BME280;38952;51.090;-1.832;2022-12-11T05:18:32;99463.88;;;-4.16;82.69
51849;BME280;38952;51.090;-1.832;2022-12-11T05:21:05;99421.63;;;-4.34;82.49
51849;BME280;38952;51.090;-1.832;2022-12-11T05:23:34;99475.25;;;-4.07;82.59
51849;BME280;38952;51.090;-1.832;2022-12-11T05:26:02;99467.84;;;-4.05;82.55
51849;BME280;38952;51.090;-1.832;2022-12-11T05:28:35;99487.50;;;-3.91;82.87
51849;BME280;38952;51.090;-1.832;2022-12-11T05:31:29;99454.63;;;-4.13;83.05
51849;BME280;38952;51.090;-1.832;2022-12-11T05:33:57;99464.84;;;-3.95;83.10
51849;BME280;38952;51.090;-1.832;2022-12-11T05:36:45;99475.63;;;-3.82;83.08
51849;BME280;38952;51.090;-1.832;2022-12-11T05:39:20;99447.63;;;-3.93;82.91
51849;BME280;38952;51.090;-1.832;2022-12-11T05:41:49;99471.38;;;-3.70;82.82
51849;BME280;38952;51.090;-1.832;2022-12-11T05:44:22;99447.06;;;-3.81;82.40
51849;BME280;38952;51.090;-1.832;2022-12-11T05:46:52;99452.44;;;-3.75;82.83
51849;BME280;38952;51.090;-1.832;2022-12-11T05:49:24;99460.28;;;-3.66;82.82
51849;BME280;38952;51.090;-1.832;2022-12-11T05:51:52;99457.47;;;-3.58;82.58
51849;BME280;38952;51.090;-1.832;2022-12-11T05:54:25;99444.91;;;-3.64;82.79
51849;BME280;38952;51.090;-1.832;2022-12-11T05:56:53;99430.69;;;-3.72;82.47
51849;BME280;38952;51.090;-1.832;2022-12-11T05:59:21;99443.25;;;-3.65;82.58
51849;BME280;38952;51.090;-1.832;2022-12-11T06:01:49;99429.88;;;-3.72;82.41
51849;BME280;38952;51.090;-1.832;2022-12-11T06:04:14;99434.34;;;-3.73;82.94
51849;BME280;38952;51.090;-1.832;2022-12-11T06:06:40;99452.91;;;-3.64;82.56
51849;BME280;38952;51.090;-1.832;2022-12-11T06:09:15;99444.69;;;-3.63;82.68
51849;BME280;38952;51.090;-1.832;2022-12-11T06:11:41;99443.03;;;-3.64;82.88
51849;BME280;38952;51.090;-1.832;2022-12-11T06:14:07;99441.00;;;-3.62;83.15
51849;BME280;38952;51.090;-1.832;2022-12-11T06:16:36;99446.78;;;-3.58;82.96
51849;BME280;38952;51.090;-1.832;2022-12-11T06:19:01;99444.09;;;-3.58;82.71
51849;BME280;38952;51.090;-1.832;2022-12-11T06:21:32;99457.31;;;-3.50;83.00
51849;BME280;38952;51.090;-1.832;2022-12-11T06:24:02;99459.34;;;-3.52;83.08
51849;BME280;38952;51.090;-1.832;2022-12-11T06:26:31;99428.06;;;-3.65;82.43
51849;BME280;38952;51.090;-1.832;2022-12-11T06:28:59;99420.41;;;-3.68;83.29
51849;BME280;38952;51.090;-1.832;2022-12-11T06:31:24;99436.47;;;-3.61;83.25
51849;BME280;38952;51.090;-1.832;2022-12-11T06:33:50;99437.75;;;-3.57;83.22
51849;BME280;38952;51.090;-1.832;2022-12-11T06:36:17;99426.19;;;-3.64;83.37
51849;BME280;38952;51.090;-1.832;2022-12-11T06:38:43;99434.88;;;-3.56;83.62
51849;BME280;38952;51.090;-1.832;2022-12-11T06:41:14;99431.13;;;-3.61;83.15
51849;BME280;38952;51.090;-1.832;2022-12-11T06:43:40;99455.47;;;-3.49;83.36
51849;BME280;38952;51.090;-1.832;2022-12-11T06:46:12;99452.78;;;-3.49;82.70
51849;BME280;38952;51.090;-1.832;2022-12-11T06:48:41;99440.22;;;-3.56;82.92
51849;BME280;38952;51.090;-1.832;2022-12-11T06:51:09;99445.97;;;-3.52;83.11
51849;BME280;38952;51.090;-1.832;2022-12-11T06:53:52;99445.69;;;-3.71;82.73
51849;BME280;38952;51.090;-1.832;2022-12-11T06:56:22;99447.91;;;-3.81;82.82
51849;BME280;38952;51.090;-1.832;2022-12-11T06:58:48;99440.03;;;-3.89;83.01
51849;BME280;38952;51.090;-1.832;2022-12-11T07:01:28;99459.00;;;-3.77;82.84
51849;BME280;38952;51.090;-1.832;2022-12-11T07:03:54;99455.75;;;-3.73;82.55
51849;BME280;38952;51.090;-1.832;2022-12-11T07:06:20;99466.50;;;-3.59;82.88
51849;BME280;38952;51.090;-1.832;2022-12-11T07:08:48;99458.31;;;-3.51;82.95
51849;BME280;38952;51.090;-1.832;2022-12-11T07:11:16;99455.06;;;-3.46;82.94
51849;BME280;38952;51.090;-1.832;2022-12-11T07:13:42;99460.91;;;-3.29;82.62
51849;BME280;38952;51.090;-1.832;2022-12-11T07:16:08;99451.44;;;-3.32;82.77
51849;BME280;38952;51.090;-1.832;2022-12-11T07:18:39;99459.13;;;-3.09;82.41
51849;BME280;38952;51.090;-1.832;2022-12-11T07:21:06;99438.75;;;-3.10;82.43
51849;BME280;38952;51.090;-1.832;2022-12-11T07:23:34;99451.13;;;-2.95;82.09
51849;BME280;38952;51.090;-1.832;2022-12-11T07:26:10;99467.88;;;-2.80;82.56
51849;BME280;38952;51.090;-1.832;2022-12-11T07:28:45;99454.25;;;-2.85;82.13
51849;BME280;38952;51.090;-1.832;2022-12-11T07:31:17;99468.91;;;-2.68;82.80
51849;BME280;38952;51.090;-1.832;2022-12-11T07:33:43;99457.38;;;-2.68;82.06
51849;BME280;38952;51.090;-1.832;2022-12-11T07:36:12;99449.16;;;-2.67;82.01
51849;BME280;38952;51.090;-1.832;2022-12-11T07:38:40;99454.72;;;-2.61;82.44
51849;BME280;38952;51.090;-1.832;2022-12-11T07:41:16;99447.09;;;-2.58;81.43
51849;BME280;38952;51.090;-1.832;2022-12-11T07:43:50;99461.34;;;-2.37;81.66
51849;BME280;38952;51.090;-1.832;2022-12-11T07:46:20;99455.97;;;-2.37;81.17
51849;BME280;38952;51.090;-1.832;2022-12-11T07:48:46;99453.69;;;-2.34;81.93
51849;BME280;38952;51.090;-1.832;2022-12-11T07:51:30;99469.38;;;-2.17;81.60
51849;BME280;38952;51.090;-1.832;2022-12-11T07:54:06;99461.75;;;-2.14;82.09
51849;BME280;38952;51.090;-1.832;2022-12-11T07:56:32;99470.19;;;-2.03;81.14
51849;BME280;38952;51.090;-1.832;2022-12-11T07:58:59;99452.50;;;-2.04;81.72
51849;BME280;38952;51.090;-1.832;2022-12-11T08:01:27;99461.13;;;-1.96;80.74
51849;BME280;38952;51.090;-1.832;2022-12-11T08:03:53;99468.53;;;-1.84;81.79
51849;BME280;38952;51.090;-1.832;2022-12-11T08:06:24;99449.59;;;-1.89;81.58
51849;BME280;38952;51.090;-1.832;2022-12-11T08:08:50;99456.19;;;-1.85;81.58
51849;BME280;38952;51.090;-1.832;2022-12-11T08:11:17;99448.75;;;-1.83;80.87
51849;BME280;38952;51.090;-1.832;2022-12-11T08:13:42;99429.38;;;-1.92;81.11
51849;BME280;38952;51.090;-1.832;2022-12-11T08:16:12;99443.78;;;-1.80;80.93
51849;BME280;38952;51.090;-1.832;2022-12-11T08:18:42;99436.38;;;-1.84;80.84
51849;BME280;38952;51.090;-1.832;2022-12-11T08:21:19;99461.94;;;-1.75;80.76
51849;BME280;38952;51.090;-1.832;2022-12-11T08:23:45;99457.19;;;-1.73;81.48
51849;BME280;38952;51.090;-1.832;2022-12-11T08:26:22;99467.69;;;-1.65;81.60
51849;BME280;38952;51.090;-1.832;2022-12-11T08:28:59;99463.13;;;-1.64;80.23
51849;BME280;38952;51.090;-1.832;2022-12-11T08:31:28;99448.72;;;-1.70;80.69
51849;BME280;38952;51.090;-1.832;2022-12-11T08:33:56;99438.03;;;-1.77;80.69
51849;BME280;38952;51.090;-1.832;2022-12-11T08:36:22;99431.38;;;-1.74;81.04
51849;BME280;38952;51.090;-1.832;2022-12-11T08:38:53;99447.66;;;-1.55;80.47
51849;BME280;38952;51.090;-1.832;2022-12-11T08:41:22;99459.34;;;-1.36;79.79
51849;BME280;38952;51.090;-1.832;2022-12-11T08:43:53;99466.31;;;-1.29;80.76
51849;BME280;38952;51.090;-1.832;2022-12-11T08:46:27;99447.75;;;-1.24;80.98
51849;BME280;38952;51.090;-1.832;2022-12-11T08:48:54;99451.00;;;-1.15;79.55
51849;BME280;38952;51.090;-1.832;2022-12-11T08:51:21;99452.25;;;-1.17;79.56
51849;BME280;38952;51.090;-1.832;2022-12-11T08:53:48;99431.28;;;-1.34;79.39
51849;BME280;38952;51.090;-1.832;2022-12-11T08:56:17;99460.31;;;-1.17;79.98
51849;BME280;38952;51.090;-1.832;2022-12-11T08:58:43;99447.31;;;-1.14;79.25
51849;BME280;38952;51.090;-1.832;2022-12-11T09:01:19;99448.47;;;-1.03;79.70
51849;BME280;38952;51.090;-1.832;2022-12-11T09:03:49;99449.88;;;-0.94;79.77
51849;BME280;38952;51.090;-1.832;2022-12-11T09:06:23;99425.34;;;-1.04;79.01
51849;BME280;38952;51.090;-1.832;2022-12-11T09:08:50;99453.53;;;-0.81;79.42
51849;BME280;38952;51.090;-1.832;2022-12-11T09:21:20;99410.41;;;-0.86;80.23
51849;BME280;38952;51.090;-1.832;2022-12-11T09:23:46;99435.31;;;-0.73;79.85
51849;BME280;38952;51.090;-1.832;2022-12-11T09:26:15;99438.72;;;-0.59;79.43
51849;BME280;38952;51.090;-1.832;2022-12-11T09:28:54;99428.41;;;-0.62;79.41
51849;BME280;38952;51.090;-1.832;2022-12-11T09:31:34;99412.38;;;-0.68;80.01
51849;BME280;38952;51.090;-1.832;2022-12-11T09:34:06;99413.13;;;-0.61;79.65
51849;BME280;38952;51.090;-1.832;2022-12-11T09:36:37;99421.56;;;-0.58;79.76
51849;BME280;38952;51.090;-1.832;2022-12-11T09:39:07;99443.63;;;-0.49;80.28
51849;BME280;38952;51.090;-1.832;2022-12-11T09:41:36;99431.63;;;-0.46;80.73
51849;BME280;38952;51.090;-1.832;2022-12-11T09:44:28;99419.47;;;-0.56;80.16
51849;BME280;38952;51.090;-1.832;2022-12-11T09:46:57;99416.38;;;-0.52;80.10
51849;BME280;38952;51.090;-1.832;2022-12-11T09:54:21;99426.00;;;-0.70;80.68
51849;BME280;38952;51.090;-1.832;2022-12-11T09:57:19;99435.91;;;-0.71;80.43
51849;BME280;38952;51.090;-1.832;2022-12-11T10:17:41;99434.63;;;-0.36;80.24
51849;BME280;38952;51.090;-1.832;2022-12-11T10:22:34;99456.59;;;0.30;79.10
51849;BME280;38952;51.090;-1.832;2022-12-11T10:25:07;99436.28;;;0.34;79.38
51849;BME280;38952;51.090;-1.832;2022-12-11T10:27:43;99445.69;;;0.43;78.58
51849;BME280;38952;51.090;-1.832;2022-12-11T10:30:22;99429.84;;;0.54;77.73
51849;BME280;38952;51.090;-1.832;2022-12-11T10:35:40;99440.50;;;0.97;77.21
51849;BME280;38952;51.090;-1.832;2022-12-11T10:40:44;99433.06;;;0.81;77.07
51849;BME280;38952;51.090;-1.832;2022-12-11T10:43:11;99428.94;;;0.60;76.68
51849;BME280;38952;51.090;-1.832;2022-12-11T10:45:39;99438.97;;;0.52;77.71
51849;BME280;38952;51.090;-1.832;2022-12-11T10:48:10;99435.31;;;0.47;77.39
51849;BME280;38952;51.090;-1.832;2022-12-11T10:50:41;99431.34;;;0.31;77.39
51849;BME280;38952;51.090;-1.832;2022-12-11T10:53:20;99431.50;;;0.36;77.21
51849;BME280;38952;51.090;-1.832;2022-12-11T10:55:49;99431.88;;;0.40;77.20
51849;BME280;38952;51.090;-1.832;2022-12-11T10:58:52;99394.16;;;0.28;76.68
51849;BME280;38952;51.090;-1.832;2022-12-11T11:04:32;99430.03;;;0.89;76.64
51849;BME280;38952;51.090;-1.832;2022-12-11T11:07:13;99384.38;;;0.82;76.07
51849;BME280;38952;51.090;-1.832;2022-12-11T11:10:13;99397.34;;;1.04;76.23
51849;BME280;38952;51.090;-1.832;2022-12-11T11:13:13;99423.66;;;1.32;76.60
51849;BME280;38952;51.090;-1.832;2022-12-11T11:15:41;99422.63;;;1.33;75.40
51849;BME280;38952;51.090;-1.832;2022-12-11T11:18:15;99429.00;;;1.51;75.26
51849;BME280;38952;51.090;-1.832;2022-12-11T11:20:49;99424.41;;;1.51;75.57
51849;BME280;38952;51.090;-1.832;2022-12-11T11:23:18;99410.16;;;1.63;75.25
51849;BME280;38952;51.090;-1.832;2022-12-11T11:26:06;99406.44;;;1.87;75.04
51849;BME280;38952;51.090;-1.832;2022-12-11T11:28:38;99409.22;;;2.40;74.84
51849;BME280;38952;51.090;-1.832;2022-12-11T11:31:08;99405.00;;;4.99;73.09
51849;BME280;38952;51.090;-1.832;2022-12-11T11:34:00;99421.44;;;7.12;65.65
51849;BME280;38952;51.090;-1.832;2022-12-11T11:36:30;99417.72;;;8.11;62.16
51849;BME280;38952;51.090;-1.832;2022-12-11T11:39:19;99419.25;;;8.64;61.61
51849;BME280;38952;51.090;-1.832;2022-12-11T11:44:26;99411.25;;;13.15;50.82
51849;BME280;38952;51.090;-1.832;2022-12-11T11:47:02;99429.66;;;13.01;50.75
51849;BME280;38952;51.090;-1.832;2022-12-11T11:49:45;99416.41;;;11.86;52.39
51849;BME280;38952;51.090;-1.832;2022-12-11T11:55:07;99431.38;;;13.10;51.02
51849;BME280;38952;51.090;-1.832;2022-12-11T11:57:57;99431.69;;;14.59;47.25
51849;BME280;38952;51.090;-1.832;2022-12-11T12:00:28;99425.59;;;15.37;45.48
51849;BME280;38952;51.090;-1.832;2022-12-11T12:03:09;99406.28;;;16.16;44.26
51849;BME280;38952;51.090;-1.832;2022-12-11T12:14:10;99431.72;;;23.97;32.45
51849;BME280;38952;51.090;-1.832;2022-12-11T12:30:58;99403.97;;;12.83;44.49
51849;BME280;38952;51.090;-1.832;2022-12-11T12:40:27;99398.69;;;13.51;44.70
51849;BME280;38952;51.090;-1.832;2022-12-11T12:46:20;99376.50;;;18.75;37.21
51849;BME280;38952;51.090;-1.832;2022-12-11T12:52:44;99387.81;;;28.13;26.84
51849;BME280;38952;51.090;-1.832;2022-12-11T12:58:53;99373.66;;;24.13;26.46
51849;BME280;38952;51.090;-1.832;2022-12-11T13:01:31;99380.53;;;21.07;29.12
51849;BME280;38952;51.090;-1.832;2022-12-11T14:59:24;99380.16;;;4.80;59.77
51849;BME280;38952;51.090;-1.832;2022-12-11T15:02:23;99359.25;;;4.53;60.35
51849;BME280;38952;51.090;-1.832;2022-12-11T15:05:15;99384.50;;;4.59;61.48
51849;BME280;38952;51.090;-1.832;2022-12-11T15:11:10;99381.75;;;4.36;62.26
51849;BME280;38952;51.090;-1.832;2022-12-11T15:17:03;99376.72;;;4.23;62.81
51849;BME280;38952;51.090;-1.832;2022-12-11T15:29:48;99365.97;;;3.89;64.24
51849;BME280;38952;51.090;-1.832;2022-12-11T15:35:29;99374.19;;;3.77;65.28
51849;BME280;38952;51.090;-1.832;2022-12-11T15:48:09;99360.75;;;3.31;66.84
51849;BME280;38952;51.090;-1.832;2022-12-11T15:58:22;99372.31;;;3.15;68.01
51849;BME280;38952;51.090;-1.832;2022-12-11T16:01:22;99373.78;;;3.06;68.73
51849;BME280;38952;51.090;-1.832;2022-12-11T16:04:21;99380.72;;;3.02;68.58
51849;BME280;38952;51.090;-1.832;2022-12-11T16:07:22;99378.91;;;2.90;69.10
51849;BME280;38952;51.090;-1.832;2022-12-11T16:16:02;99348.41;;;2.49;70.36
51849;BME280;38952;51.090;-1.832;2022-12-11T16:18:32;99356.75;;;2.48;70.88
51849;BME280;38952;51.090;-1.832;2022-12-11T16:21:03;99368.72;;;2.52;71.04
51849;BME280;38952;51.090;-1.832;2022-12-11T16:23:38;99379.16;;;2.48;71.64
51849;BME280;38952;51.090;-1.832;2022-12-11T16:26:06;99375.88;;;2.46;71.30
51849;BME280;38952;51.090;-1.832;2022-12-11T16:35:44;99370.63;;;2.27;72.02
51849;BME280;38952;51.090;-1.832;2022-12-11T16:38:10;99374.97;;;2.29;72.25
51849;BME280;38952;51.090;-1.832;2022-12-11T16:40:38;99365.16;;;2.11;72.57
51849;BME280;38952;51.090;-1.832;2022-12-11T16:43:14;99363.25;;;2.11;73.19
51849;BME280;38952;51.090;-1.832;2022-12-11T16:45:42;99377.81;;;2.10;73.52
51849;BME280;38952;51.090;-1.832;2022-12-11T16:48:17;99369.47;;;2.00;73.20
51849;BME280;38952;51.090;-1.832;2022-12-11T16:50:42;99398.47;;;2.16;73.82
51849;BME280;38952;51.090;-1.832;2022-12-11T16:53:10;99386.25;;;2.02;74.39
51849;BME280;38952;51.090;-1.832;2022-12-11T16:56:09;99395.88;;;1.98;74.05
51849;BME280;38952;51.090;-1.832;2022-12-11T16:58:50;99412.28;;;2.08;74.81
51849;BME280;38952;51.090;-1.832;2022-12-11T17:01:29;99419.34;;;2.09;74.81
51849;BME280;38952;51.090;-1.832;2022-12-11T17:04:26;99412.75;;;2.05;75.16
51849;BME280;38952;51.090;-1.832;2022-12-11T17:07:13;99372.19;;;1.76;74.96
51849;BME280;38952;51.090;-1.832;2022-12-11T17:09:40;99413.72;;;1.99;75.06
51849;BME280;38952;51.090;-1.832;2022-12-11T17:12:05;99402.22;;;1.91;75.39
51849;BME280;38952;51.090;-1.832;2022-12-11T17:14:42;99405.38;;;1.88;75.52
51849;BME280;38952;51.090;-1.832;2022-12-11T17:17:13;99404.44;;;1.83;75.66
51849;BME280;38952;51.090;-1.832;2022-12-11T17:19:39;99399.59;;;1.73;75.78
51849;BME280;38952;51.090;-1.832;2022-12-11T17:22:06;99401.72;;;1.71;75.89
51849;BME280;38952;51.090;-1.832;2022-12-11T17:24:37;99415.31;;;1.76;76.48
51849;BME280;38952;51.090;-1.832;2022-12-11T17:27:13;99398.91;;;1.66;76.19
51849;BME280;38952;51.090;-1.832;2022-12-11T17:29:47;99401.03;;;1.64;76.33
51849;BME280;38952;51.090;-1.832;2022-12-11T17:32:14;99401.81;;;1.64;76.54
51849;BME280;38952;51.090;-1.832;2022-12-11T17:34:48;99416.25;;;1.70;76.75
51849;BME280;38952;51.090;-1.832;2022-12-11T17:38:00;99408.97;;;1.59;76.24
51849;BME280;38952;51.090;-1.832;2022-12-11T17:40:59;99392.88;;;1.52;76.83
51849;BME280;38952;51.090;-1.832;2022-12-11T17:57:32;99389.38;;;1.39;77.04
51849;BME280;38952;51.090;-1.832;2022-12-11T18:00:21;99380.31;;;1.34;77.27
51849;BME280;38952;51.090;-1.832;2022-12-11T18:02:56;99389.84;;;1.36;77.93